Terminal Aerodrome Forecast
Issued by NWS

Home | Current Version | Previous Version | Text Only | Print | Product List | Glossary On
Versions: 1 2 3 4 5 6 7 8 9 10 11 12
000
FTUS45 KFGZ 161700
TAFPGA
TAF
KPGA 161735Z 1618/1718 04006KT P6SM FEW060 SCT200
     FM170400 19006KT P6SM BKN200
     FM171200 VRB06KT P6SM BKN100=

USA.gov is the U.S. government's official web portal to all federal, state and local government web resources and services.